createdAt,value
2019-03-13T01:37:31.066Z,6.50
2019-03-13T01:40:00.854Z,6.60
2019-03-13T01:42:30.462Z,6.60
2019-03-13T01:45:00.075Z,6.60
2019-03-13T01:47:29.691Z,6.60
2019-03-13T01:49:59.319Z,6.70
2019-03-13T01:52:32.082Z,6.70
2019-03-13T01:55:00.390Z,6.70
2019-03-13T01:57:30.022Z,6.70
2019-03-13T01:59:59.717Z,6.80
2019-03-13T02:02:29.313Z,6.70
2019-03-13T02:04:58.922Z,6.80
2019-03-13T02:07:28.532Z,6.80
2019-03-13T02:09:58.157Z,6.80
2019-03-13T02:12:27.930Z,6.80
2019-03-13T02:14:57.546Z,6.80
2019-03-13T02:17:27.248Z,6.90
2019-03-13T02:19:56.866Z,6.90
2019-03-13T02:22:26.478Z,6.90
2019-03-13T02:24:56.091Z,6.90
2019-03-13T02:27:25.702Z,6.90
2019-03-13T02:29:55.447Z,6.90
2019-03-13T02:32:25.062Z,6.90
2019-03-13T02:34:54.664Z,6.90
2019-03-13T02:37:24.253Z,6.90
2019-03-13T02:39:53.875Z,6.80
2019-03-13T02:42:23.476Z,6.80
2019-03-13T02:44:53.131Z,6.80
2019-03-13T02:47:22.929Z,6.80
2019-03-13T02:49:52.535Z,6.80
2019-03-13T02:52:22.157Z,6.90
2019-03-13T02:54:51.760Z,6.90
2019-03-13T02:57:21.372Z,6.90
2019-03-13T02:59:50.991Z,6.90
2019-03-13T03:02:34.121Z,6.90
2019-03-13T03:05:04.299Z,6.80
2019-03-13T03:07:35.007Z,6.80
2019-03-13T03:10:05.279Z,6.80
2019-03-13T03:12:34.881Z,6.90
2019-03-13T03:15:08.402Z,6.90
2019-03-13T03:17:38.033Z,6.90
2019-03-13T03:20:10.367Z,7.00
2019-03-13T03:22:40.051Z,7.00
2019-03-13T03:25:10.439Z,7.10
2019-03-13T03:27:40.124Z,7.10
2019-03-13T03:30:13.207Z,7.10
2019-03-13T03:32:42.917Z,7.20
2019-03-13T03:35:12.765Z,7.20
2019-03-13T03:37:42.416Z,7.20
2019-03-13T03:40:14.406Z,7.30
2019-03-13T03:42:44.097Z,7.30
2019-03-13T03:45:13.921Z,7.30
2019-03-13T03:47:43.628Z,7.30
2019-03-13T03:50:13.476Z,7.30
2019-03-13T03:52:43.081Z,7.30
2019-03-13T03:55:13.039Z,7.30
2019-03-13T03:57:42.745Z,7.30
2019-03-13T04:00:12.654Z,7.30
2019-03-13T04:02:42.416Z,7.30
2019-03-13T04:05:12.196Z,7.30
2019-03-13T04:07:41.931Z,7.30
2019-03-13T04:10:11.806Z,7.30
2019-03-13T04:12:41.466Z,7.30
2019-03-13T04:15:11.227Z,7.30
2019-03-13T04:17:40.899Z,7.20
2019-03-13T04:20:11.401Z,7.20
2019-03-13T04:22:41.009Z,7.10
2019-03-13T04:25:12.899Z,7.10
2019-03-13T04:27:42.507Z,7.10
2019-03-13T04:30:12.391Z,7.10
2019-03-13T04:32:42.015Z,7.10
2019-03-13T04:35:11.676Z,7.10
2019-03-13T04:37:41.288Z,7.10
2019-03-13T04:40:11.078Z,7.10
2019-03-13T04:42:40.785Z,7.10
2019-03-13T04:45:11.334Z,7.20
2019-03-13T04:47:40.974Z,7.20
2019-03-13T04:50:10.658Z,7.30
2019-03-13T04:52:40.413Z,7.20
2019-03-13T04:55:11.350Z,7.30
2019-03-13T04:57:40.965Z,7.30
2019-03-13T05:00:12.050Z,7.30
2019-03-13T05:02:41.693Z,7.30
2019-03-13T05:05:47.514Z,7.30
2019-03-13T05:08:47.596Z,7.30
2019-03-13T05:11:17.193Z,7.30
2019-03-13T05:13:46.889Z,7.30
2019-03-13T05:16:16.490Z,7.30
2019-03-13T05:18:46.090Z,7.30
2019-03-13T05:21:15.962Z,7.30
2019-03-13T05:23:45.558Z,7.30
2019-03-13T05:26:15.170Z,7.40
2019-03-13T05:28:44.761Z,7.40
2019-03-13T05:31:14.392Z,7.40
2019-03-13T05:33:43.990Z,7.40
2019-03-13T05:36:16.458Z,7.50
2019-03-13T05:38:45.192Z,7.50
2019-03-13T05:41:14.820Z,7.50
2019-03-13T05:43:44.415Z,7.50
2019-03-13T05:46:14.029Z,7.50
2019-03-13T05:48:43.628Z,7.50
2019-03-13T05:51:13.274Z,7.50
2019-03-13T05:53:42.919Z,7.50
2019-03-13T05:56:12.533Z,7.60
2019-03-13T05:58:43.260Z,7.60
2019-03-13T06:01:12.973Z,7.60
2019-03-13T06:03:42.585Z,7.60
2019-03-13T06:06:12.230Z,7.60
2019-03-13T06:08:41.902Z,7.60
2019-03-13T06:11:11.537Z,7.70
2019-03-13T06:13:41.210Z,7.70
2019-03-13T06:16:10.818Z,7.70
2019-03-13T06:18:40.465Z,7.70
2019-03-13T06:21:10.137Z,7.70
2019-03-13T06:23:39.794Z,7.70
2019-03-13T06:26:09.405Z,7.70
2019-03-13T06:28:39.087Z,7.70
2019-03-13T06:31:08.708Z,7.80
2019-03-13T06:33:38.310Z,7.80
2019-03-13T06:36:07.913Z,7.80
2019-03-13T06:38:37.523Z,7.80
2019-03-13T06:41:07.126Z,7.80
2019-03-13T06:43:36.754Z,7.80
2019-03-13T06:46:06.384Z,7.80
2019-03-13T06:48:35.990Z,7.80
2019-03-13T06:51:05.669Z,7.90
2019-03-13T06:53:35.269Z,7.90
2019-03-13T06:56:04.978Z,7.90
2019-03-13T06:58:40.749Z,7.90
2019-03-13T07:01:24.139Z,7.90
2019-03-13T07:04:31.114Z,7.90
2019-03-13T07:07:16.087Z,7.80
2019-03-13T07:10:11.086Z,7.70
2019-03-13T07:12:58.694Z,7.60
2019-03-13T07:15:40.104Z,7.50
2019-03-13T07:18:15.427Z,7.50
2019-03-13T07:21:03.105Z,7.50
2019-03-13T07:23:37.886Z,7.50
2019-03-13T07:26:29.621Z,7.50
2019-03-13T07:29:24.482Z,7.60
2019-03-13T07:32:03.118Z,7.60
2019-03-13T07:34:39.358Z,7.60
2019-03-13T07:37:27.184Z,7.60
2019-03-13T07:40:25.222Z,7.70
2019-03-13T07:43:01.115Z,7.70
2019-03-13T07:45:40.230Z,7.80
2019-03-13T07:48:28.053Z,7.80
2019-03-13T07:51:28.959Z,7.80
2019-03-13T07:54:17.699Z,7.80
2019-03-13T07:57:05.116Z,7.90
2019-03-13T07:59:49.110Z,7.90
2019-03-13T08:02:38.879Z,7.90
2019-03-13T08:05:24.341Z,7.90
2019-03-13T08:08:22.092Z,8.00
2019-03-13T08:10:59.886Z,8.10
2019-03-13T08:13:52.310Z,8.10
2019-03-13T08:16:33.398Z,8.10
2019-03-13T08:19:09.137Z,8.20
2019-03-13T08:21:57.886Z,8.20
2019-03-13T08:24:49.603Z,8.20
2019-03-13T08:27:38.571Z,8.20
2019-03-13T08:30:27.930Z,8.20
2019-03-13T08:33:10.626Z,8.20
2019-03-13T08:36:14.702Z,8.30
2019-03-13T08:38:52.122Z,8.30
2019-03-13T08:41:37.274Z,8.30
2019-03-13T08:44:20.398Z,8.30
2019-03-13T08:47:12.146Z,8.20
2019-03-13T08:49:50.434Z,8.30
2019-03-13T08:52:38.149Z,8.30
2019-03-13T08:55:30.792Z,8.30
2019-03-13T08:58:08.796Z,8.20
2019-03-13T09:00:54.677Z,8.20
2019-03-13T09:03:32.246Z,8.20
2019-03-13T09:06:19.090Z,8.20
2019-03-13T09:09:10.871Z,8.30
2019-03-13T09:11:55.377Z,8.30
2019-03-13T09:14:44.093Z,8.30
2019-03-13T09:17:28.694Z,8.30
2019-03-13T09:20:15.993Z,8.30
2019-03-13T09:23:03.511Z,8.30
2019-03-13T09:25:50.161Z,8.30
2019-03-13T09:28:50.958Z,8.20
2019-03-13T09:31:27.771Z,8.20
2019-03-13T09:34:19.302Z,8.20
2019-03-13T09:37:11.057Z,8.20
2019-03-13T09:39:51.358Z,8.10
2019-03-13T09:42:32.426Z,8.10
2019-03-13T09:45:19.757Z,8.00
2019-03-13T09:48:26.954Z,8.00
2019-03-13T09:51:07.841Z,7.90
2019-03-13T09:54:05.236Z,7.90
2019-03-13T09:56:42.410Z,7.80
2019-03-13T09:59:22.999Z,7.80
2019-03-13T10:02:17.871Z,7.80
2019-03-13T10:05:03.730Z,7.90
2019-03-13T10:07:41.734Z,7.90
2019-03-13T10:10:22.834Z,8.00
2019-03-13T10:13:10.750Z,8.00
2019-03-13T10:15:58.062Z,8.10
2019-03-13T10:18:45.466Z,8.20
2019-03-13T10:21:52.598Z,8.10
2019-03-13T10:24:35.718Z,8.00
2019-03-13T10:27:24.423Z,8.00
2019-03-13T10:30:16.099Z,8.00
2019-03-13T10:32:59.926Z,8.00
2019-03-13T10:35:49.042Z,8.00
2019-03-13T10:38:37.728Z,8.00
2019-03-13T10:41:16.545Z,8.00
2019-03-13T10:44:14.346Z,8.10
2019-03-13T10:46:56.759Z,8.10
2019-03-13T10:49:33.707Z,8.10
2019-03-13T10:52:21.887Z,8.10
2019-03-13T10:55:09.302Z,8.20
2019-03-13T10:57:57.118Z,8.30
2019-03-13T11:00:40.840Z,8.30
2019-03-13T11:03:28.293Z,8.30
2019-03-13T11:06:06.755Z,8.40
2019-03-13T11:08:42.732Z,8.50
2019-03-13T11:11:37.538Z,8.50
2019-03-13T11:14:25.195Z,8.50
2019-03-13T11:17:19.911Z,8.50
2019-03-13T11:20:11.794Z,8.50
2019-03-13T11:22:59.294Z,8.60
2019-03-13T11:25:44.130Z,8.60
2019-03-13T11:28:28.475Z,8.60
2019-03-13T11:31:14.408Z,8.60
2019-03-13T11:34:00.109Z,8.70
2019-03-13T11:36:57.966Z,8.70
2019-03-13T11:39:52.503Z,8.70
2019-03-13T11:42:34.557Z,8.70
2019-03-13T11:45:26.662Z,8.70
2019-03-13T11:48:07.767Z,8.70
2019-03-13T11:50:56.547Z,8.70
2019-03-13T11:53:44.425Z,8.70
2019-03-13T11:56:25.590Z,8.60
2019-03-13T11:59:13.658Z,8.60
2019-03-13T12:01:52.476Z,8.70
2019-03-13T12:04:37.221Z,8.70
2019-03-13T12:07:33.954Z,8.80
2019-03-13T12:10:29.090Z,8.90
2019-03-13T12:13:24.524Z,8.70
2019-03-13T12:16:01.528Z,8.60
2019-03-13T12:18:50.328Z,8.60
2019-03-13T12:21:35.325Z,8.70
2019-03-13T12:24:27.349Z,8.70
2019-03-13T12:27:14.714Z,8.80
2019-03-13T12:30:09.606Z,8.90
2019-03-13T12:32:49.390Z,9.00
2019-03-13T12:35:53.438Z,9.20
2019-03-13T12:38:43.474Z,9.30
2019-03-13T12:41:30.794Z,9.50
2019-03-13T12:44:12.078Z,9.80
2019-03-13T12:47:13.282Z,10.10
2019-03-13T12:49:53.450Z,10.10
2019-03-13T12:52:45.006Z,9.90
2019-03-13T12:55:36.738Z,9.80
2019-03-13T12:58:19.369Z,9.60
2019-03-13T13:01:16.087Z,9.50
2019-03-13T13:04:07.875Z,9.50
2019-03-13T13:07:01.488Z,9.50
2019-03-13T13:09:49.901Z,9.40
2019-03-13T13:12:37.809Z,9.60
2019-03-13T13:15:29.815Z,9.80
2019-03-13T13:18:21.739Z,10.00
2019-03-13T13:20:51.355Z,10.00
2019-03-13T13:23:20.977Z,10.00
2019-03-13T13:26:09.833Z,9.90
2019-03-13T13:28:39.482Z,9.80
2019-03-13T13:31:09.113Z,9.60
2019-03-13T13:33:38.730Z,9.40
2019-03-13T13:36:08.405Z,9.20
2019-03-13T13:38:37.996Z,9.10
2019-03-13T13:41:07.609Z,9.10
2019-03-13T13:43:37.233Z,9.10
2019-03-13T13:46:16.994Z,9.10
2019-03-13T13:48:46.605Z,9.30
2019-03-13T13:51:16.199Z,9.40
2019-03-13T13:53:45.859Z,9.50
2019-03-13T13:56:15.473Z,9.70
2019-03-13T13:58:45.072Z,9.90
2019-03-13T14:01:14.753Z,10.10
2019-03-13T14:03:44.390Z,10.30
2019-03-13T14:06:14.052Z,10.20
2019-03-13T14:08:43.631Z,10.20
2019-03-13T14:11:13.278Z,10.00
2019-03-13T14:13:42.886Z,10.00
2019-03-13T14:16:12.566Z,9.90
2019-03-13T14:18:42.195Z,9.90
2019-03-13T14:21:11.786Z,9.80
2019-03-13T14:23:41.418Z,9.80
2019-03-13T14:26:11.040Z,9.80
2019-03-13T14:28:40.638Z,9.70
2019-03-13T14:31:10.256Z,9.60
2019-03-13T14:33:39.867Z,9.70
2019-03-13T14:36:09.458Z,9.70
2019-03-13T14:38:39.085Z,9.80
2019-03-13T14:41:08.816Z,9.90
2019-03-13T14:43:38.423Z,10.00
2019-03-13T14:46:08.290Z,10.10
2019-03-13T14:48:37.892Z,10.10
2019-03-13T14:51:07.515Z,10.10
2019-03-13T14:53:37.214Z,10.10
2019-03-13T14:56:06.890Z,10.10
2019-03-13T14:58:36.518Z,10.10
2019-03-13T15:01:06.134Z,10.10
2019-03-13T15:03:35.890Z,10.00
2019-03-13T15:06:05.603Z,10.00
2019-03-13T15:08:35.290Z,10.00
2019-03-13T15:11:04.910Z,10.00
2019-03-13T15:13:34.505Z,10.00
2019-03-13T15:16:04.266Z,10.00
2019-03-13T15:18:33.890Z,10.00
2019-03-13T15:21:03.593Z,10.00
2019-03-13T15:23:33.211Z,10.00
2019-03-13T15:26:02.816Z,10.00
2019-03-13T15:28:32.427Z,9.90
2019-03-13T15:31:02.140Z,9.90
2019-03-13T15:33:31.778Z,9.80
2019-03-13T15:36:01.386Z,9.80
2019-03-13T15:38:30.992Z,9.60
2019-03-13T15:41:00.593Z,9.40
2019-03-13T15:43:30.197Z,9.20
2019-03-13T15:45:59.794Z,9.00
2019-03-13T15:48:30.533Z,9.00
2019-03-13T15:51:00.222Z,9.00
2019-03-13T15:53:29.818Z,9.10
2019-03-13T15:55:59.443Z,9.10
2019-03-13T15:58:29.047Z,9.10
2019-03-13T16:00:58.678Z,9.10
2019-03-13T16:03:28.282Z,9.00
2019-03-13T16:05:57.875Z,9.00
2019-03-13T16:08:27.499Z,8.90
2019-03-13T16:10:57.182Z,9.00
2019-03-13T16:13:26.811Z,8.90
2019-03-13T16:15:56.467Z,8.90
2019-03-13T16:18:26.109Z,8.90
2019-03-13T16:20:55.934Z,8.90
2019-03-13T16:23:25.550Z,8.90
2019-03-13T16:25:55.194Z,8.80
2019-03-13T16:28:24.854Z,8.80
2019-03-13T16:30:55.087Z,8.80
2019-03-13T16:33:24.719Z,8.70
2019-03-13T16:35:54.387Z,8.70
2019-03-13T16:38:23.990Z,8.70
2019-03-13T16:40:53.622Z,8.60
2019-03-13T16:43:23.306Z,8.60
2019-03-13T16:45:52.946Z,8.70
2019-03-13T16:48:22.551Z,8.70
2019-03-13T16:50:52.243Z,8.70
2019-03-13T16:53:21.950Z,8.60
2019-03-13T16:55:51.646Z,8.70
2019-03-13T16:58:21.379Z,8.60
2019-03-13T17:00:51.146Z,8.60
2019-03-13T17:03:20.827Z,8.60
2019-03-13T17:05:50.865Z,8.60
2019-03-13T17:08:20.475Z,8.60
2019-03-13T17:10:50.095Z,8.40
2019-03-13T17:13:19.698Z,8.40
2019-03-13T17:15:49.576Z,8.30
2019-03-13T17:18:38.481Z,8.30
2019-03-13T17:21:08.578Z,8.20
2019-03-13T17:23:38.218Z,8.10
2019-03-13T17:26:07.846Z,8.10
2019-03-13T17:28:37.470Z,8.10
2019-03-13T17:31:07.076Z,8.20
2019-03-13T17:33:36.658Z,8.20
2019-03-13T17:36:06.365Z,8.20
2019-03-13T17:38:35.994Z,8.10
2019-03-13T17:41:05.788Z,8.10
2019-03-13T17:43:39.443Z,8.20
2019-03-13T17:46:07.341Z,8.20
2019-03-13T17:48:38.262Z,8.20
2019-03-13T17:51:07.896Z,8.20
2019-03-13T17:53:37.506Z,8.20
2019-03-13T17:56:07.341Z,8.20
2019-03-13T17:58:37.080Z,8.20
2019-03-13T18:01:25.929Z,8.10
2019-03-13T18:03:55.596Z,8.10
2019-03-13T18:06:25.254Z,8.20
2019-03-13T18:08:54.937Z,8.30
2019-03-13T18:11:24.615Z,8.30
2019-03-13T18:13:54.265Z,8.20
2019-03-13T18:16:24.015Z,8.20
2019-03-13T18:18:53.726Z,8.10
2019-03-13T18:21:23.528Z,8.10
2019-03-13T18:23:53.170Z,8.10
2019-03-13T18:26:22.825Z,8.00
2019-03-13T18:28:52.487Z,7.90
2019-03-13T18:31:22.195Z,7.80
2019-03-13T18:33:52.023Z,7.80
2019-03-13T18:36:21.622Z,7.70
2019-03-13T18:38:51.218Z,7.70
2019-03-13T18:41:23.332Z,7.70
2019-03-13T18:44:05.618Z,7.70
2019-03-13T18:46:35.227Z,7.70
2019-03-13T18:49:04.857Z,7.70
2019-03-13T18:51:34.449Z,7.70
2019-03-13T18:54:04.183Z,7.70
2019-03-13T18:56:33.870Z,7.80
2019-03-13T18:59:03.556Z,7.80
2019-03-13T19:01:34.238Z,7.90
2019-03-13T19:04:03.904Z,7.90
2019-03-13T19:06:33.624Z,7.90
2019-03-13T19:09:03.401Z,7.90
2019-03-13T19:11:34.642Z,7.90
2019-03-13T19:14:04.502Z,7.90
2019-03-13T19:16:34.110Z,7.80
2019-03-13T19:19:03.893Z,7.80
2019-03-13T19:21:33.497Z,7.80
2019-03-13T19:24:03.184Z,7.90
2019-03-13T19:26:32.810Z,7.90
2019-03-13T19:29:02.424Z,7.90
2019-03-13T19:31:32.019Z,7.90
2019-03-13T19:34:01.818Z,7.80
2019-03-13T19:36:31.432Z,7.70
2019-03-13T19:39:01.043Z,7.60
2019-03-13T19:41:32.305Z,7.60
2019-03-13T19:44:01.986Z,7.50
2019-03-13T19:46:32.223Z,7.40
2019-03-13T19:49:01.955Z,7.40
2019-03-13T19:51:31.566Z,7.40
2019-03-13T19:54:02.178Z,7.50
2019-03-13T19:56:35.031Z,7.50
2019-03-13T19:59:03.251Z,7.60
2019-03-13T20:01:33.067Z,7.60
2019-03-13T20:04:02.674Z,7.70
2019-03-13T20:06:41.668Z,7.70
2019-03-13T20:09:04.630Z,7.70
2019-03-13T20:11:35.958Z,7.80
2019-03-13T20:14:05.558Z,7.80
2019-03-13T20:16:35.206Z,7.80
2019-03-13T20:19:04.888Z,7.80
2019-03-13T20:21:34.523Z,7.80
2019-03-13T20:24:04.150Z,7.90
2019-03-13T20:26:33.760Z,7.90
2019-03-13T20:29:03.377Z,7.90
2019-03-13T20:31:33.037Z,7.90
2019-03-13T20:34:02.826Z,7.90
2019-03-13T20:36:33.418Z,7.90
2019-03-13T20:39:03.090Z,7.90
2019-03-13T20:41:34.418Z,7.90
2019-03-13T20:44:04.018Z,7.90
2019-03-13T20:46:33.754Z,7.90
2019-03-13T20:49:03.566Z,7.90
2019-03-13T20:51:33.193Z,8.00
2019-03-13T20:54:02.794Z,8.00
2019-03-13T20:56:32.390Z,8.00
2019-03-13T20:59:02.024Z,8.00
2019-03-13T21:01:31.638Z,8.00
2019-03-13T21:04:01.233Z,8.00
2019-03-13T21:06:30.926Z,8.10
2019-03-13T21:09:00.538Z,8.10
2019-03-13T21:11:31.815Z,8.10
2019-03-13T21:14:01.415Z,8.00
2019-03-13T21:16:32.096Z,8.00
2019-03-13T21:19:01.791Z,7.90
2019-03-13T21:21:31.402Z,7.90
2019-03-13T21:24:01.093Z,7.90
2019-03-13T21:26:30.718Z,7.90
2019-03-13T21:29:00.400Z,7.90
2019-03-13T21:31:30.014Z,7.90
2019-03-13T21:33:59.629Z,7.90
2019-03-13T21:36:29.327Z,7.90
2019-03-13T21:38:58.964Z,7.90
2019-03-13T21:41:28.557Z,7.90
2019-03-13T21:43:58.175Z,7.90
2019-03-13T21:46:27.790Z,7.90
2019-03-13T21:48:57.386Z,7.90
2019-03-13T21:51:26.996Z,7.90
2019-03-13T21:53:56.608Z,7.90
2019-03-13T21:56:26.240Z,7.80
2019-03-13T21:58:55.857Z,7.80
2019-03-13T22:01:25.587Z,7.80
2019-03-13T22:03:55.214Z,7.80
2019-03-13T22:06:28.988Z,7.80
2019-03-13T22:08:56.134Z,7.70
2019-03-13T22:11:25.741Z,7.70
2019-03-13T22:13:55.519Z,7.70
2019-03-13T22:16:25.153Z,7.70
2019-03-13T22:18:54.750Z,7.70
2019-03-13T22:21:24.358Z,7.70
2019-03-13T22:23:54.003Z,7.70
2019-03-13T22:26:23.745Z,7.70
2019-03-13T22:28:53.334Z,7.70
2019-03-13T22:31:22.931Z,7.70
2019-03-13T22:33:52.534Z,7.60
2019-03-13T22:36:22.137Z,7.60
2019-03-13T22:38:51.730Z,7.60
2019-03-13T22:41:21.357Z,7.60
2019-03-13T22:43:51.960Z,7.60
2019-03-13T22:46:21.543Z,7.60
2019-03-13T22:48:58.079Z,7.60
2019-03-13T22:51:22.530Z,7.60
2019-03-13T22:53:52.227Z,7.60
2019-03-13T22:56:21.874Z,7.60
2019-03-13T22:58:51.610Z,7.60
2019-03-13T23:01:21.899Z,7.60
2019-03-13T23:03:52.003Z,7.60
2019-03-13T23:06:21.681Z,7.60
2019-03-13T23:08:51.291Z,7.50
2019-03-13T23:11:21.002Z,7.50
2019-03-13T23:13:50.751Z,7.50
2019-03-13T23:16:20.422Z,7.50
2019-03-13T23:18:51.714Z,7.50
2019-03-13T23:21:21.350Z,7.50
2019-03-13T23:23:50.947Z,7.50
2019-03-13T23:26:20.563Z,7.60
2019-03-13T23:28:50.177Z,7.60
2019-03-13T23:31:19.854Z,7.20
2019-03-13T23:33:49.481Z,7.50
2019-03-13T23:36:19.144Z,7.50
2019-03-13T23:38:48.742Z,7.50
2019-03-13T23:41:18.350Z,7.50
2019-03-13T23:43:47.966Z,7.50
2019-03-13T23:46:17.772Z,7.50
2019-03-13T23:48:47.374Z,7.50
2019-03-13T23:51:17.008Z,7.50
2019-03-13T23:53:46.596Z,7.50
2019-03-13T23:56:16.206Z,7.50
2019-03-13T23:58:45.894Z,7.50
